sensor_id;sensor_type;location;lat;lon;timestamp;P1;durP1;ratioP1;P2;durP2;ratioP2
18867;SDS011;9563;49.240;9.088;2023-07-13T04:01:24;3.65;;;1.58;;
18867;SDS011;9563;49.240;9.088;2023-07-13T04:03:51;3.88;;;1.90;;
18867;SDS011;9563;49.240;9.088;2023-07-13T04:06:21;4.50;;;1.60;;
18867;SDS011;9563;49.240;9.088;2023-07-13T04:08:50;3.17;;;1.48;;
18867;SDS011;9563;49.240;9.088;2023-07-13T04:11:20;10.55;;;2.45;;
18867;SDS011;9563;49.240;9.088;2023-07-13T04:13:48;3.72;;;1.75;;
18867;SDS011;9563;49.240;9.088;2023-07-13T04:16:18;2.47;;;1.35;;
18867;SDS011;9563;49.240;9.088;2023-07-13T04:18:46;2.65;;;1.75;;
18867;SDS011;9563;49.240;9.088;2023-07-13T04:21:15;4.47;;;1.65;;
18867;SDS011;9563;49.240;9.088;2023-07-13T04:23:42;4.38;;;1.63;;
18867;SDS011;9563;49.240;9.088;2023-07-13T04:26:09;5.78;;;1.85;;
18867;SDS011;9563;49.240;9.088;2023-07-13T04:28:36;5.68;;;2.03;;
18867;SDS011;9563;49.240;9.088;2023-07-13T04:31:03;2.50;;;1.73;;
18867;SDS011;9563;49.240;9.088;2023-07-13T04:33:30;5.95;;;1.90;;
18867;SDS011;9563;49.240;9.088;2023-07-13T04:35:59;4.10;;;1.48;;
18867;SDS011;9563;49.240;9.088;2023-07-13T04:38:27;3.13;;;2.03;;
18867;SDS011;9563;49.240;9.088;2023-07-13T04:40:56;5.43;;;1.92;;
18867;SDS011;9563;49.240;9.088;2023-07-13T04:43:23;3.72;;;1.40;;
18867;SDS011;9563;49.240;9.088;2023-07-13T04:45:51;5.45;;;2.03;;
18867;SDS011;9563;49.240;9.088;2023-07-13T04:48:18;6.63;;;1.77;;
18867;SDS011;9563;49.240;9.088;2023-07-13T04:50:45;4.60;;;2.10;;
18867;SDS011;9563;49.240;9.088;2023-07-13T04:53:14;3.22;;;2.10;;
18867;SDS011;9563;49.240;9.088;2023-07-13T04:55:41;3.88;;;1.55;;
18867;SDS011;9563;49.240;9.088;2023-07-13T04:58:08;4.10;;;1.48;;
18867;SDS011;9563;49.240;9.088;2023-07-13T05:00:35;5.85;;;1.85;;
18867;SDS011;9563;49.240;9.088;2023-07-13T05:03:02;4.10;;;2.20;;
18867;SDS011;9563;49.240;9.088;2023-07-13T05:05:29;6.57;;;2.00;;
18867;SDS011;9563;49.240;9.088;2023-07-13T05:07:56;7.80;;;2.40;;
18867;SDS011;9563;49.240;9.088;2023-07-13T05:10:24;4.68;;;1.90;;
18867;SDS011;9563;49.240;9.088;2023-07-13T05:12:51;6.50;;;2.55;;
18867;SDS011;9563;49.240;9.088;2023-07-13T05:15:20;4.03;;;2.05;;
18867;SDS011;9563;49.240;9.088;2023-07-13T05:17:48;7.22;;;2.30;;
18867;SDS011;9563;49.240;9.088;2023-07-13T05:20:15;9.05;;;2.42;;
18867;SDS011;9563;49.240;9.088;2023-07-13T05:22:43;4.93;;;2.25;;
18867;SDS011;9563;49.240;9.088;2023-07-13T05:25:11;7.07;;;2.00;;
18867;SDS011;9563;49.240;9.088;2023-07-13T05:27:40;7.50;;;2.28;;
18867;SDS011;9563;49.240;9.088;2023-07-13T05:30:07;10.70;;;2.53;;
18867;SDS011;9563;49.240;9.088;2023-07-13T05:32:37;9.48;;;3.03;;
18867;SDS011;9563;49.240;9.088;2023-07-13T05:35:04;3.35;;;2.00;;
18867;SDS011;9563;49.240;9.088;2023-07-13T05:37:31;6.47;;;2.22;;
18867;SDS011;9563;49.240;9.088;2023-07-13T05:39:58;4.93;;;2.03;;
18867;SDS011;9563;49.240;9.088;2023-07-13T05:42:25;5.47;;;2.03;;
18867;SDS011;9563;49.240;9.088;2023-07-13T05:44:53;5.20;;;2.22;;
18867;SDS011;9563;49.240;9.088;2023-07-13T05:47:20;4.30;;;1.90;;
18867;SDS011;9563;49.240;9.088;2023-07-13T05:49:47;2.88;;;2.00;;
18867;SDS011;9563;49.240;9.088;2023-07-13T05:52:14;6.47;;;2.45;;
18867;SDS011;9563;49.240;9.088;2023-07-13T05:54:41;8.07;;;2.38;;
18867;SDS011;9563;49.240;9.088;2023-07-13T05:57:08;4.88;;;2.30;;
18867;SDS011;9563;49.240;9.088;2023-07-13T05:59:35;7.57;;;2.30;;
18867;SDS011;9563;49.240;9.088;2023-07-13T06:02:03;5.53;;;2.20;;
18867;SDS011;9563;49.240;9.088;2023-07-13T06:04:31;8.65;;;2.00;;
18867;SDS011;9563;49.240;9.088;2023-07-13T06:06:58;5.68;;;1.92;;
18867;SDS011;9563;49.240;9.088;2023-07-13T06:09:25;8.30;;;2.38;;
18867;SDS011;9563;49.240;9.088;2023-07-13T06:11:52;4.95;;;2.30;;
18867;SDS011;9563;49.240;9.088;2023-07-13T06:14:18;5.07;;;1.95;;
18867;SDS011;9563;49.240;9.088;2023-07-13T06:16:45;5.00;;;2.20;;
18867;SDS011;9563;49.240;9.088;2023-07-13T06:19:14;5.05;;;1.90;;
18867;SDS011;9563;49.240;9.088;2023-07-13T06:21:41;6.43;;;1.90;;
18867;SDS011;9563;49.240;9.088;2023-07-13T06:24:08;4.50;;;1.73;;
18867;SDS011;9563;49.240;9.088;2023-07-13T06:26:34;5.35;;;1.77;;
18867;SDS011;9563;49.240;9.088;2023-07-13T06:29:01;6.80;;;1.80;;
18867;SDS011;9563;49.240;9.088;2023-07-13T06:31:29;7.35;;;2.20;;
18867;SDS011;9563;49.240;9.088;2023-07-13T06:33:55;9.40;;;2.38;;
18867;SDS011;9563;49.240;9.088;2023-07-13T06:36:24;2.30;;;1.73;;
18867;SDS011;9563;49.240;9.088;2023-07-13T06:38:51;5.65;;;2.15;;
18867;SDS011;9563;49.240;9.088;2023-07-13T06:41:18;3.55;;;1.65;;
18867;SDS011;9563;49.240;9.088;2023-07-13T06:43:45;10.85;;;2.80;;
18867;SDS011;9563;49.240;9.088;2023-07-13T06:46:12;7.68;;;2.15;;
18867;SDS011;9563;49.240;9.088;2023-07-13T06:48:39;5.97;;;1.88;;
18867;SDS011;9563;49.240;9.088;2023-07-13T06:51:06;5.00;;;2.30;;
18867;SDS011;9563;49.240;9.088;2023-07-13T06:53:35;5.13;;;1.95;;
18867;SDS011;9563;49.240;9.088;2023-07-13T06:56:02;4.53;;;1.67;;
18867;SDS011;9563;49.240;9.088;2023-07-13T06:58:33;4.45;;;1.60;;
18867;SDS011;9563;49.240;9.088;2023-07-13T07:01:00;3.08;;;1.50;;
18867;SDS011;9563;49.240;9.088;2023-07-13T07:03:27;4.25;;;1.27;;
18867;SDS011;9563;49.240;9.088;2023-07-13T07:05:59;4.57;;;1.67;;
18867;SDS011;9563;49.240;9.088;2023-07-13T07:08:27;8.98;;;2.28;;
18867;SDS011;9563;49.240;9.088;2023-07-13T07:10:55;4.25;;;1.50;;
18867;SDS011;9563;49.240;9.088;2023-07-13T07:13:22;6.07;;;1.67;;
18867;SDS011;9563;49.240;9.088;2023-07-13T07:15:49;6.85;;;1.63;;
18867;SDS011;9563;49.240;9.088;2023-07-13T07:18:16;7.07;;;1.42;;
18867;SDS011;9563;49.240;9.088;2023-07-13T07:20:43;4.65;;;1.58;;
18867;SDS011;9563;49.240;9.088;2023-07-13T07:23:10;3.30;;;1.20;;
18867;SDS011;9563;49.240;9.088;2023-07-13T07:25:37;4.47;;;1.55;;
18867;SDS011;9563;49.240;9.088;2023-07-13T07:28:08;5.85;;;1.35;;
18867;SDS011;9563;49.240;9.088;2023-07-13T07:30:35;2.60;;;1.20;;
18867;SDS011;9563;49.240;9.088;2023-07-13T07:33:03;4.47;;;1.55;;
18867;SDS011;9563;49.240;9.088;2023-07-13T07:35:29;5.75;;;1.58;;
18867;SDS011;9563;49.240;9.088;2023-07-13T07:37:56;4.60;;;1.35;;
18867;SDS011;9563;49.240;9.088;2023-07-13T07:40:23;5.68;;;1.50;;
18867;SDS011;9563;49.240;9.088;2023-07-13T07:42:50;6.18;;;1.60;;
18867;SDS011;9563;49.240;9.088;2023-07-13T07:45:18;3.88;;;1.42;;
18867;SDS011;9563;49.240;9.088;2023-07-13T07:47:49;11.45;;;1.58;;
18867;SDS011;9563;49.240;9.088;2023-07-13T07:50:16;5.40;;;1.13;;
18867;SDS011;9563;49.240;9.088;2023-07-13T07:52:44;4.75;;;1.27;;
18867;SDS011;9563;49.240;9.088;2023-07-13T07:55:11;3.67;;;1.30;;
18867;SDS011;9563;49.240;9.088;2023-07-13T07:57:38;5.13;;;1.33;;
18867;SDS011;9563;49.240;9.088;2023-07-13T08:00:05;2.65;;;1.20;;
18867;SDS011;9563;49.240;9.088;2023-07-13T08:02:35;3.35;;;1.23;;
18867;SDS011;9563;49.240;9.088;2023-07-13T08:05:05;2.35;;;1.20;;
18867;SDS011;9563;49.240;9.088;2023-07-13T08:07:32;6.97;;;1.40;;
18867;SDS011;9563;49.240;9.088;2023-07-13T08:09:59;2.90;;;1.30;;
18867;SDS011;9563;49.240;9.088;2023-07-13T08:12:26;4.90;;;1.58;;
18867;SDS011;9563;49.240;9.088;2023-07-13T08:14:53;3.97;;;1.15;;
18867;SDS011;9563;49.240;9.088;2023-07-13T08:17:22;3.75;;;1.30;;
18867;SDS011;9563;49.240;9.088;2023-07-13T08:19:51;2.80;;;1.30;;
18867;SDS011;9563;49.240;9.088;2023-07-13T08:22:21;4.43;;;1.27;;
18867;SDS011;9563;49.240;9.088;2023-07-13T08:24:48;5.47;;;1.17;;
18867;SDS011;9563;49.240;9.088;2023-07-13T08:27:20;4.28;;;1.20;;
18867;SDS011;9563;49.240;9.088;2023-07-13T08:29:48;2.15;;;0.85;;
18867;SDS011;9563;49.240;9.088;2023-07-13T08:32:15;4.72;;;1.02;;
18867;SDS011;9563;49.240;9.088;2023-07-13T08:34:43;4.88;;;1.20;;
18867;SDS011;9563;49.240;9.088;2023-07-13T08:37:11;2.95;;;1.00;;
18867;SDS011;9563;49.240;9.088;2023-07-13T08:39:38;2.08;;;1.20;;
18867;SDS011;9563;49.240;9.088;2023-07-13T08:42:07;6.13;;;1.20;;
18867;SDS011;9563;49.240;9.088;2023-07-13T08:44:44;3.63;;;1.45;;
18867;SDS011;9563;49.240;9.088;2023-07-13T08:47:21;5.47;;;1.30;;
18867;SDS011;9563;49.240;9.088;2023-07-13T08:49:49;1.38;;;1.05;;
18867;SDS011;9563;49.240;9.088;2023-07-13T08:52:21;2.40;;;1.05;;
18867;SDS011;9563;49.240;9.088;2023-07-13T08:54:58;5.18;;;1.10;;
18867;SDS011;9563;49.240;9.088;2023-07-13T08:57:32;5.70;;;1.85;;
18867;SDS011;9563;49.240;9.088;2023-07-13T09:00:01;2.42;;;1.25;;
18867;SDS011;9563;49.240;9.088;2023-07-13T09:02:34;2.72;;;1.10;;
18867;SDS011;9563;49.240;9.088;2023-07-13T09:05:09;3.58;;;1.10;;
18867;SDS011;9563;49.240;9.088;2023-07-13T09:07:43;2.70;;;1.00;;
18867;SDS011;9563;49.240;9.088;2023-07-13T09:10:25;5.32;;;1.52;;
18867;SDS011;9563;49.240;9.088;2023-07-13T09:12:57;4.05;;;1.08;;
18867;SDS011;9563;49.240;9.088;2023-07-13T09:15:35;5.20;;;1.33;;
18867;SDS011;9563;49.240;9.088;2023-07-13T09:18:06;5.32;;;1.23;;
18867;SDS011;9563;49.240;9.088;2023-07-13T09:20:37;3.53;;;1.13;;
18867;SDS011;9563;49.240;9.088;2023-07-13T09:23:14;3.38;;;1.10;;
18867;SDS011;9563;49.240;9.088;2023-07-13T09:25:43;4.93;;;1.10;;
18867;SDS011;9563;49.240;9.088;2023-07-13T09:28:15;4.78;;;1.10;;
18867;SDS011;9563;49.240;9.088;2023-07-13T09:30:50;5.80;;;1.02;;
18867;SDS011;9563;49.240;9.088;2023-07-13T09:33:20;5.38;;;1.95;;
18867;SDS011;9563;49.240;9.088;2023-07-13T09:35:47;7.32;;;1.70;;
18867;SDS011;9563;49.240;9.088;2023-07-13T09:38:17;2.95;;;1.08;;
18867;SDS011;9563;49.240;9.088;2023-07-13T09:40:55;6.65;;;1.30;;
18867;SDS011;9563;49.240;9.088;2023-07-13T09:43:28;7.78;;;1.27;;
18867;SDS011;9563;49.240;9.088;2023-07-13T09:45:55;6.22;;;1.20;;
18867;SDS011;9563;49.240;9.088;2023-07-13T09:48:22;4.32;;;1.02;;
18867;SDS011;9563;49.240;9.088;2023-07-13T09:50:49;3.25;;;1.35;;
18867;SDS011;9563;49.240;9.088;2023-07-13T09:53:22;4.97;;;0.93;;
18867;SDS011;9563;49.240;9.088;2023-07-13T09:55:49;3.22;;;0.95;;
18867;SDS011;9563;49.240;9.088;2023-07-13T09:58:17;5.55;;;1.25;;
18867;SDS011;9563;49.240;9.088;2023-07-13T10:00:53;2.63;;;0.93;;
18867;SDS011;9563;49.240;9.088;2023-07-13T10:03:23;6.65;;;1.30;;
18867;SDS011;9563;49.240;9.088;2023-07-13T10:05:52;4.03;;;1.30;;
18867;SDS011;9563;49.240;9.088;2023-07-13T10:08:25;5.22;;;1.20;;
18867;SDS011;9563;49.240;9.088;2023-07-13T10:10:59;3.10;;;1.17;;
18867;SDS011;9563;49.240;9.088;2023-07-13T10:13:29;3.22;;;1.15;;
18867;SDS011;9563;49.240;9.088;2023-07-13T10:16:00;6.50;;;1.63;;
18867;SDS011;9563;49.240;9.088;2023-07-13T10:18:27;9.68;;;1.35;;
18867;SDS011;9563;49.240;9.088;2023-07-13T10:20:58;4.05;;;1.33;;
18867;SDS011;9563;49.240;9.088;2023-07-13T10:23:37;3.05;;;1.10;;
18867;SDS011;9563;49.240;9.088;2023-07-13T10:26:08;6.70;;;1.45;;
18867;SDS011;9563;49.240;9.088;2023-07-13T10:28:42;5.18;;;1.13;;
18867;SDS011;9563;49.240;9.088;2023-07-13T10:31:14;3.90;;;1.60;;
18867;SDS011;9563;49.240;9.088;2023-07-13T10:33:42;5.03;;;1.70;;
18867;SDS011;9563;49.240;9.088;2023-07-13T10:36:12;9.20;;;3.10;;
18867;SDS011;9563;49.240;9.088;2023-07-13T10:38:45;2.97;;;1.23;;
18867;SDS011;9563;49.240;9.088;2023-07-13T10:41:15;3.83;;;1.65;;
18867;SDS011;9563;49.240;9.088;2023-07-13T10:43:45;6.15;;;1.13;;
18867;SDS011;9563;49.240;9.088;2023-07-13T10:46:15;2.88;;;0.98;;
18867;SDS011;9563;49.240;9.088;2023-07-13T10:48:44;3.22;;;0.88;;
18867;SDS011;9563;49.240;9.088;2023-07-13T10:51:17;2.97;;;0.98;;
18867;SDS011;9563;49.240;9.088;2023-07-13T10:53:48;3.35;;;0.98;;
18867;SDS011;9563;49.240;9.088;2023-07-13T10:56:42;4.95;;;1.17;;
18867;SDS011;9563;49.240;9.088;2023-07-13T10:59:10;2.70;;;1.10;;
18867;SDS011;9563;49.240;9.088;2023-07-13T11:01:41;3.63;;;1.25;;
18867;SDS011;9563;49.240;9.088;2023-07-13T11:04:17;2.10;;;0.88;;
18867;SDS011;9563;49.240;9.088;2023-07-13T11:06:46;3.08;;;0.80;;
18867;SDS011;9563;49.240;9.088;2023-07-13T11:09:34;3.60;;;1.10;;
18867;SDS011;9563;49.240;9.088;2023-07-13T11:12:07;2.58;;;1.08;;
18867;SDS011;9563;49.240;9.088;2023-07-13T11:15:01;4.65;;;1.40;;
18867;SDS011;9563;49.240;9.088;2023-07-13T11:17:46;3.50;;;1.10;;
18867;SDS011;9563;49.240;9.088;2023-07-13T11:20:34;5.80;;;1.50;;
18867;SDS011;9563;49.240;9.088;2023-07-13T11:23:08;6.55;;;1.38;;
18867;SDS011;9563;49.240;9.088;2023-07-13T11:25:48;5.55;;;1.20;;
18867;SDS011;9563;49.240;9.088;2023-07-13T11:28:21;5.30;;;1.05;;
18867;SDS011;9563;49.240;9.088;2023-07-13T11:30:59;4.78;;;1.20;;
18867;SDS011;9563;49.240;9.088;2023-07-13T11:33:53;4.35;;;1.10;;
18867;SDS011;9563;49.240;9.088;2023-07-13T11:36:23;3.63;;;1.25;;
18867;SDS011;9563;49.240;9.088;2023-07-13T11:38:56;4.10;;;1.45;;
18867;SDS011;9563;49.240;9.088;2023-07-13T11:41:30;3.28;;;1.35;;
18867;SDS011;9563;49.240;9.088;2023-07-13T11:44:02;9.00;;;1.45;;
18867;SDS011;9563;49.240;9.088;2023-07-13T11:46:34;9.38;;;1.40;;
18867;SDS011;9563;49.240;9.088;2023-07-13T11:49:01;2.80;;;1.23;;
18867;SDS011;9563;49.240;9.088;2023-07-13T11:51:30;3.72;;;1.20;;
18867;SDS011;9563;49.240;9.088;2023-07-13T11:54:01;7.43;;;1.33;;
18867;SDS011;9563;49.240;9.088;2023-07-13T11:56:31;3.20;;;0.82;;
18867;SDS011;9563;49.240;9.088;2023-07-13T11:59:02;4.70;;;1.17;;
18867;SDS011;9563;49.240;9.088;2023-07-13T12:01:32;4.35;;;1.10;;
18867;SDS011;9563;49.240;9.088;2023-07-13T12:03:59;3.97;;;1.10;;
18867;SDS011;9563;49.240;9.088;2023-07-13T12:06:28;5.47;;;1.10;;
18867;SDS011;9563;49.240;9.088;2023-07-13T12:08:56;5.20;;;1.20;;
18867;SDS011;9563;49.240;9.088;2023-07-13T12:11:24;7.57;;;1.30;;
18867;SDS011;9563;49.240;9.088;2023-07-13T12:13:53;2.65;;;0.93;;
18867;SDS011;9563;49.240;9.088;2023-07-13T12:16:22;2.50;;;0.90;;
18867;SDS011;9563;49.240;9.088;2023-07-13T12:18:55;4.25;;;0.82;;
18867;SDS011;9563;49.240;9.088;2023-07-13T12:21:27;2.97;;;0.82;;
18867;SDS011;9563;49.240;9.088;2023-07-13T12:23:58;3.72;;;1.10;;
18867;SDS011;9563;49.240;9.088;2023-07-13T12:26:28;3.83;;;1.17;;
18867;SDS011;9563;49.240;9.088;2023-07-13T12:28:58;3.70;;;1.42;;
18867;SDS011;9563;49.240;9.088;2023-07-13T12:31:30;3.33;;;1.25;;
18867;SDS011;9563;49.240;9.088;2023-07-13T12:34:00;2.38;;;1.05;;
18867;SDS011;9563;49.240;9.088;2023-07-13T12:36:33;2.80;;;0.93;;
18867;SDS011;9563;49.240;9.088;2023-07-13T12:39:04;10.35;;;1.38;;
18867;SDS011;9563;49.240;9.088;2023-07-13T12:41:38;3.97;;;1.20;;
18867;SDS011;9563;49.240;9.088;2023-07-13T12:44:09;4.55;;;1.55;;
18867;SDS011;9563;49.240;9.088;2023-07-13T12:46:38;2.63;;;1.27;;
18867;SDS011;9563;49.240;9.088;2023-07-13T12:49:05;3.78;;;1.27;;
18867;SDS011;9563;49.240;9.088;2023-07-13T12:51:34;3.20;;;1.27;;
18867;SDS011;9563;49.240;9.088;2023-07-13T12:54:07;2.42;;;1.23;;
18867;SDS011;9563;49.240;9.088;2023-07-13T12:56:41;2.55;;;0.90;;
18867;SDS011;9563;49.240;9.088;2023-07-13T12:59:18;6.35;;;1.55;;
18867;SDS011;9563;49.240;9.088;2023-07-13T13:01:47;4.53;;;1.25;;
18867;SDS011;9563;49.240;9.088;2023-07-13T13:04:15;4.05;;;1.33;;
18867;SDS011;9563;49.240;9.088;2023-07-13T13:06:46;2.25;;;1.00;;
18867;SDS011;9563;49.240;9.088;2023-07-13T13:09:14;4.45;;;1.10;;
18867;SDS011;9563;49.240;9.088;2023-07-13T13:11:43;3.97;;;1.20;;
18867;SDS011;9563;49.240;9.088;2023-07-13T13:14:12;3.85;;;1.25;;
18867;SDS011;9563;49.240;9.088;2023-07-13T13:16:44;6.15;;;1.45;;
18867;SDS011;9563;49.240;9.088;2023-07-13T13:19:15;3.10;;;1.33;;
18867;SDS011;9563;49.240;9.088;2023-07-13T13:21:44;6.13;;;1.30;;
18867;SDS011;9563;49.240;9.088;2023-07-13T13:24:12;2.97;;;1.02;;
18867;SDS011;9563;49.240;9.088;2023-07-13T13:26:41;4.22;;;1.00;;
18867;SDS011;9563;49.240;9.088;2023-07-13T13:29:12;7.43;;;1.05;;
18867;SDS011;9563;49.240;9.088;2023-07-13T13:31:40;7.40;;;1.80;;
18867;SDS011;9563;49.240;9.088;2023-07-13T13:34:08;4.25;;;1.08;;
18867;SDS011;9563;49.240;9.088;2023-07-13T13:36:36;2.97;;;1.10;;
18867;SDS011;9563;49.240;9.088;2023-07-13T13:39:05;3.22;;;1.20;;
18867;SDS011;9563;49.240;9.088;2023-07-13T13:41:42;2.58;;;1.25;;
18867;SDS011;9563;49.240;9.088;2023-07-13T13:44:09;4.15;;;1.40;;
18867;SDS011;9563;49.240;9.088;2023-07-13T13:46:37;3.00;;;1.30;;
18867;SDS011;9563;49.240;9.088;2023-07-13T13:49:04;7.68;;;1.13;;
18867;SDS011;9563;49.240;9.088;2023-07-13T13:51:31;3.00;;;1.30;;
18867;SDS011;9563;49.240;9.088;2023-07-13T13:53:58;1.70;;;0.93;;
18867;SDS011;9563;49.240;9.088;2023-07-13T13:56:27;3.20;;;1.13;;
18867;SDS011;9563;49.240;9.088;2023-07-13T13:58:53;7.50;;;1.17;;
18867;SDS011;9563;49.240;9.088;2023-07-13T14:01:21;5.10;;;1.20;;
18867;SDS011;9563;49.240;9.088;2023-07-13T14:03:51;2.90;;;1.10;;
18867;SDS011;9563;49.240;9.088;2023-07-13T14:06:17;3.53;;;1.30;;
18867;SDS011;9563;49.240;9.088;2023-07-13T14:08:44;3.28;;;1.38;;
18867;SDS011;9563;49.240;9.088;2023-07-13T14:11:12;2.78;;;1.20;;
18867;SDS011;9563;49.240;9.088;2023-07-13T14:13:42;6.35;;;1.13;;
18867;SDS011;9563;49.240;9.088;2023-07-13T14:16:12;4.97;;;1.33;;
18867;SDS011;9563;49.240;9.088;2023-07-13T14:18:42;5.43;;;1.73;;
18867;SDS011;9563;49.240;9.088;2023-07-13T14:21:12;5.20;;;1.40;;
18867;SDS011;9563;49.240;9.088;2023-07-13T14:23:42;7.22;;;1.48;;
18867;SDS011;9563;49.240;9.088;2023-07-13T14:26:10;5.90;;;1.13;;
18867;SDS011;9563;49.240;9.088;2023-07-13T14:28:41;4.13;;;1.00;;
18867;SDS011;9563;49.240;9.088;2023-07-13T14:31:09;3.00;;;1.10;;
18867;SDS011;9563;49.240;9.088;2023-07-13T14:33:36;1.75;;;1.05;;
18867;SDS011;9563;49.240;9.088;2023-07-13T14:36:03;4.28;;;1.27;;
18867;SDS011;9563;49.240;9.088;2023-07-13T14:38:47;4.32;;;1.10;;
18867;SDS011;9563;49.240;9.088;2023-07-13T14:41:15;3.13;;;1.00;;
18867;SDS011;9563;49.240;9.088;2023-07-13T14:43:42;3.33;;;1.00;;
18867;SDS011;9563;49.240;9.088;2023-07-13T14:46:11;3.53;;;1.17;;
18867;SDS011;9563;49.240;9.088;2023-07-13T14:48:48;6.53;;;1.17;;
18867;SDS011;9563;49.240;9.088;2023-07-13T14:51:28;2.15;;;0.88;;
18867;SDS011;9563;49.240;9.088;2023-07-13T14:53:55;8.35;;;1.23;;
18867;SDS011;9563;49.240;9.088;2023-07-13T14:56:22;4.57;;;0.88;;
18867;SDS011;9563;49.240;9.088;2023-07-13T14:58:49;3.05;;;1.10;;
18867;SDS011;9563;49.240;9.088;2023-07-13T15:01:18;14.35;;;1.20;;
18867;SDS011;9563;49.240;9.088;2023-07-13T15:03:46;3.90;;;1.23;;
18867;SDS011;9563;49.240;9.088;2023-07-13T15:06:14;3.25;;;1.17;;
18867;SDS011;9563;49.240;9.088;2023-07-13T15:08:43;2.75;;;1.10;;
18867;SDS011;9563;49.240;9.088;2023-07-13T15:11:10;4.93;;;1.20;;
18867;SDS011;9563;49.240;9.088;2023-07-13T15:13:37;2.35;;;0.90;;
18867;SDS011;9563;49.240;9.088;2023-07-13T15:16:07;6.13;;;1.10;;
18867;SDS011;9563;49.240;9.088;2023-07-13T15:18:42;4.22;;;1.17;;
18867;SDS011;9563;49.240;9.088;2023-07-13T15:21:10;1.90;;;1.00;;
18867;SDS011;9563;49.240;9.088;2023-07-13T15:23:40;2.40;;;1.10;;
18867;SDS011;9563;49.240;9.088;2023-07-13T15:26:09;4.35;;;0.93;;
18867;SDS011;9563;49.240;9.088;2023-07-13T15:28:40;4.55;;;1.17;;
18867;SDS011;9563;49.240;9.088;2023-07-13T15:31:14;6.30;;;1.02;;
18867;SDS011;9563;49.240;9.088;2023-07-13T15:33:45;4.90;;;1.20;;
18867;SDS011;9563;49.240;9.088;2023-07-13T15:36:14;4.13;;;1.10;;
18867;SDS011;9563;49.240;9.088;2023-07-13T15:38:42;3.40;;;1.05;;
18867;SDS011;9563;49.240;9.088;2023-07-13T15:41:13;3.60;;;1.30;;
18867;SDS011;9563;49.240;9.088;2023-07-13T15:43:43;6.45;;;1.20;;
18867;SDS011;9563;49.240;9.088;2023-07-13T15:46:10;6.85;;;1.17;;
18867;SDS011;9563;49.240;9.088;2023-07-13T15:48:38;1.98;;;1.10;;
18867;SDS011;9563;49.240;9.088;2023-07-13T15:51:08;2.58;;;0.90;;
18867;SDS011;9563;49.240;9.088;2023-07-13T15:53:38;2.42;;;0.95;;
18867;SDS011;9563;49.240;9.088;2023-07-13T15:56:11;4.38;;;1.20;;
18867;SDS011;9563;49.240;9.088;2023-07-13T15:58:48;4.30;;;1.30;;
18867;SDS011;9563;49.240;9.088;2023-07-13T16:01:16;2.08;;;1.05;;
18867;SDS011;9563;49.240;9.088;2023-07-13T16:03:44;4.70;;;1.40;;
18867;SDS011;9563;49.240;9.088;2023-07-13T16:06:15;4.70;;;1.20;;
18867;SDS011;9563;49.240;9.088;2023-07-13T16:08:45;5.68;;;1.00;;
18867;SDS011;9563;49.240;9.088;2023-07-13T16:11:18;2.65;;;1.08;;
18867;SDS011;9563;49.240;9.088;2023-07-13T16:13:48;12.05;;;1.38;;
18867;SDS011;9563;49.240;9.088;2023-07-13T16:16:20;4.07;;;1.10;;
18867;SDS011;9563;49.240;9.088;2023-07-13T16:18:50;3.20;;;1.25;;
18867;SDS011;9563;49.240;9.088;2023-07-13T16:21:19;5.95;;;1.13;;
18867;SDS011;9563;49.240;9.088;2023-07-13T16:23:47;3.80;;;1.30;;
18867;SDS011;9563;49.240;9.088;2023-07-13T16:26:32;2.90;;;1.25;;
18867;SDS011;9563;49.240;9.088;2023-07-13T16:29:11;2.88;;;0.82;;
18867;SDS011;9563;49.240;9.088;2023-07-13T16:31:40;3.22;;;1.02;;
18867;SDS011;9563;49.240;9.088;2023-07-13T16:34:07;9.23;;;1.25;;
18867;SDS011;9563;49.240;9.088;2023-07-13T16:36:35;3.55;;;1.00;;
18867;SDS011;9563;49.240;9.088;2023-07-13T16:39:09;3.70;;;1.15;;
18867;SDS011;9563;49.240;9.088;2023-07-13T16:41:39;6.38;;;1.25;;
18867;SDS011;9563;49.240;9.088;2023-07-13T16:44:09;5.70;;;1.50;;
18867;SDS011;9563;49.240;9.088;2023-07-13T16:46:38;4.05;;;1.70;;
18867;SDS011;9563;49.240;9.088;2023-07-13T16:49:09;2.47;;;1.13;;
18867;SDS011;9563;49.240;9.088;2023-07-13T16:51:45;3.25;;;0.88;;
18867;SDS011;9563;49.240;9.088;2023-07-13T16:54:12;3.45;;;1.15;;
18867;SDS011;9563;49.240;9.088;2023-07-13T16:56:43;4.35;;;0.88;;
18867;SDS011;9563;49.240;9.088;2023-07-13T16:59:13;1.88;;;0.98;;
18867;SDS011;9563;49.240;9.088;2023-07-13T17:01:42;3.42;;;1.08;;
18867;SDS011;9563;49.240;9.088;2023-07-13T17:04:09;4.80;;;1.15;;
18867;SDS011;9563;49.240;9.088;2023-07-13T17:06:38;3.47;;;1.08;;
18867;SDS011;9563;49.240;9.088;2023-07-13T17:09:09;4.03;;;0.98;;
18867;SDS011;9563;49.240;9.088;2023-07-13T17:11:38;6.57;;;1.20;;
18867;SDS011;9563;49.240;9.088;2023-07-13T17:14:11;6.00;;;1.45;;
18867;SDS011;9563;49.240;9.088;2023-07-13T17:16:43;3.08;;;0.90;;
18867;SDS011;9563;49.240;9.088;2023-07-13T17:19:11;7.53;;;1.35;;
18867;SDS011;9563;49.240;9.088;2023-07-13T17:21:39;2.50;;;1.15;;
18867;SDS011;9563;49.240;9.088;2023-07-13T17:24:10;3.53;;;0.88;;
18867;SDS011;9563;49.240;9.088;2023-07-13T17:26:42;3.10;;;1.20;;
18867;SDS011;9563;49.240;9.088;2023-07-13T17:29:10;8.38;;;1.27;;
18867;SDS011;9563;49.240;9.088;2023-07-13T17:31:37;4.38;;;1.25;;
18867;SDS011;9563;49.240;9.088;2023-07-13T17:34:04;3.75;;;1.23;;
18867;SDS011;9563;49.240;9.088;2023-07-13T17:36:36;1.55;;;1.02;;
18867;SDS011;9563;49.240;9.088;2023-07-13T17:39:05;2.70;;;1.02;;
18867;SDS011;9563;49.240;9.088;2023-07-13T17:41:38;2.55;;;1.30;;
18867;SDS011;9563;49.240;9.088;2023-07-13T17:44:07;8.18;;;1.20;;
18867;SDS011;9563;49.240;9.088;2023-07-13T17:46:36;4.35;;;0.93;;
18867;SDS011;9563;49.240;9.088;2023-07-13T17:49:03;3.40;;;1.30;;
18867;SDS011;9563;49.240;9.088;2023-07-13T17:51:32;2.40;;;1.10;;
18867;SDS011;9563;49.240;9.088;2023-07-13T17:54:04;4.00;;;1.33;;
18867;SDS011;9563;49.240;9.088;2023-07-13T17:56:35;7.07;;;1.38;;
18867;SDS011;9563;49.240;9.088;2023-07-13T17:59:01;7.82;;;1.35;;
18867;SDS011;9563;49.240;9.088;2023-07-13T18:01:28;4.10;;;1.35;;
18867;SDS011;9563;49.240;9.088;2023-07-13T18:03:59;2.78;;;1.00;;
18867;SDS011;9563;49.240;9.088;2023-07-13T18:06:31;2.03;;;1.30;;
18867;SDS011;9563;49.240;9.088;2023-07-13T18:09:03;5.22;;;1.40;;
18867;SDS011;9563;49.240;9.088;2023-07-13T18:11:39;3.50;;;0.98;;
18867;SDS011;9563;49.240;9.088;2023-07-13T18:14:06;3.38;;;1.13;;
18867;SDS011;9563;49.240;9.088;2023-07-13T18:16:34;6.45;;;1.10;;
18867;SDS011;9563;49.240;9.088;2023-07-13T18:19:03;3.35;;;1.20;;
18867;SDS011;9563;49.240;9.088;2023-07-13T18:21:31;3.28;;;0.90;;
18867;SDS011;9563;49.240;9.088;2023-07-13T18:24:00;1.48;;;1.02;;
18867;SDS011;9563;49.240;9.088;2023-07-13T18:26:29;3.35;;;1.10;;
18867;SDS011;9563;49.240;9.088;2023-07-13T18:28:56;5.35;;;1.17;;
18867;SDS011;9563;49.240;9.088;2023-07-13T18:31:25;4.00;;;1.05;;
18867;SDS011;9563;49.240;9.088;2023-07-13T18:33:59;4.28;;;1.30;;
18867;SDS011;9563;49.240;9.088;2023-07-13T18:36:29;3.85;;;1.40;;
18867;SDS011;9563;49.240;9.088;2023-07-13T18:38:55;2.35;;;1.30;;
18867;SDS011;9563;49.240;9.088;2023-07-13T18:41:23;2.53;;;1.27;;
18867;SDS011;9563;49.240;9.088;2023-07-13T18:43:50;3.08;;;1.30;;
18867;SDS011;9563;49.240;9.088;2023-07-13T18:46:17;4.75;;;1.38;;
18867;SDS011;9563;49.240;9.088;2023-07-13T18:48:47;1.90;;;1.15;;
18867;SDS011;9563;49.240;9.088;2023-07-13T18:51:15;2.20;;;1.00;;
18867;SDS011;9563;49.240;9.088;2023-07-13T18:53:43;3.83;;;1.20;;
18867;SDS011;9563;49.240;9.088;2023-07-13T18:56:12;3.22;;;1.30;;
18867;SDS011;9563;49.240;9.088;2023-07-13T18:58:39;6.55;;;1.20;;
18867;SDS011;9563;49.240;9.088;2023-07-13T19:01:12;2.53;;;1.13;;
18867;SDS011;9563;49.240;9.088;2023-07-13T19:03:45;3.85;;;1.15;;
18867;SDS011;9563;49.240;9.088;2023-07-13T19:06:16;3.92;;;1.20;;
18867;SDS011;9563;49.240;9.088;2023-07-13T19:08:44;3.17;;;1.20;;
18867;SDS011;9563;49.240;9.088;2023-07-13T19:11:12;3.08;;;1.30;;
18867;SDS011;9563;49.240;9.088;2023-07-13T19:13:41;2.70;;;1.23;;
18867;SDS011;9563;49.240;9.088;2023-07-13T19:16:09;2.30;;;1.15;;